sensor_id;sensor_type;location;lat;lon;timestamp;P1;durP1;ratioP1;P2;durP2;ratioP2
59310;SDS011;45078;51.654;21.250;2022-08-30T00:00:05;6.40;;;3.10;;
59310;SDS011;45078;51.654;21.250;2022-08-30T00:02:54;8.65;;;3.17;;
59310;SDS011;45078;51.654;21.250;2022-08-30T00:05:21;11.65;;;3.88;;
59310;SDS011;45078;51.654;21.250;2022-08-30T00:07:47;4.63;;;2.78;;
59310;SDS011;45078;51.654;21.250;2022-08-30T00:10:14;8.65;;;3.05;;
59310;SDS011;45078;51.654;21.250;2022-08-30T00:12:40;5.90;;;3.38;;
59310;SDS011;45078;51.654;21.250;2022-08-30T00:15:08;6.80;;;3.13;;
59310;SDS011;45078;51.654;21.250;2022-08-30T00:17:35;8.07;;;3.45;;
59310;SDS011;45078;51.654;21.250;2022-08-30T00:20:02;7.18;;;3.25;;
59310;SDS011;45078;51.654;21.250;2022-08-30T00:22:29;4.00;;;2.67;;
59310;SDS011;45078;51.654;21.250;2022-08-30T00:24:57;5.22;;;2.90;;
59310;SDS011;45078;51.654;21.250;2022-08-30T00:27:28;6.70;;;2.90;;
59310;SDS011;45078;51.654;21.250;2022-08-30T00:29:54;5.43;;;2.65;;
59310;SDS011;45078;51.654;21.250;2022-08-30T00:32:21;8.95;;;3.20;;
59310;SDS011;45078;51.654;21.250;2022-08-30T00:34:48;10.10;;;3.47;;
59310;SDS011;45078;51.654;21.250;2022-08-30T00:37:18;4.88;;;2.70;;
59310;SDS011;45078;51.654;21.250;2022-08-30T00:39:44;5.30;;;3.15;;
59310;SDS011;45078;51.654;21.250;2022-08-30T00:42:11;7.95;;;3.00;;
59310;SDS011;45078;51.654;21.250;2022-08-30T00:44:38;4.32;;;2.90;;
59310;SDS011;45078;51.654;21.250;2022-08-30T00:47:05;5.05;;;2.78;;
59310;SDS011;45078;51.654;21.250;2022-08-30T00:49:31;5.60;;;2.88;;
59310;SDS011;45078;51.654;21.250;2022-08-30T00:52:00;10.15;;;3.55;;
59310;SDS011;45078;51.654;21.250;2022-08-30T00:54:27;10.60;;;3.03;;
59310;SDS011;45078;51.654;21.250;2022-08-30T00:56:55;9.10;;;3.13;;
59310;SDS011;45078;51.654;21.250;2022-08-30T00:59:21;4.75;;;2.80;;
59310;SDS011;45078;51.654;21.250;2022-08-30T01:01:50;6.80;;;3.35;;
59310;SDS011;45078;51.654;21.250;2022-08-30T01:04:16;6.22;;;2.97;;
59310;SDS011;45078;51.654;21.250;2022-08-30T01:06:45;6.75;;;3.13;;
59310;SDS011;45078;51.654;21.250;2022-08-30T01:09:11;6.05;;;3.30;;
59310;SDS011;45078;51.654;21.250;2022-08-30T01:11:38;7.63;;;2.92;;
59310;SDS011;45078;51.654;21.250;2022-08-30T01:14:07;10.95;;;3.03;;
59310;SDS011;45078;51.654;21.250;2022-08-30T01:16:36;4.50;;;2.58;;
59310;SDS011;45078;51.654;21.250;2022-08-30T01:19:04;6.22;;;3.15;;
59310;SDS011;45078;51.654;21.250;2022-08-30T01:21:33;6.55;;;2.85;;
59310;SDS011;45078;51.654;21.250;2022-08-30T01:24:09;4.18;;;2.80;;
59310;SDS011;45078;51.654;21.250;2022-08-30T01:26:35;6.55;;;2.90;;
59310;SDS011;45078;51.654;21.250;2022-08-30T01:29:04;7.85;;;3.10;;
59310;SDS011;45078;51.654;21.250;2022-08-30T01:31:33;4.80;;;2.88;;
59310;SDS011;45078;51.654;21.250;2022-08-30T01:34:01;5.40;;;2.85;;
59310;SDS011;45078;51.654;21.250;2022-08-30T01:36:32;13.10;;;3.38;;
59310;SDS011;45078;51.654;21.250;2022-08-30T01:39:03;5.82;;;2.83;;
59310;SDS011;45078;51.654;21.250;2022-08-30T01:41:31;5.90;;;2.80;;
59310;SDS011;45078;51.654;21.250;2022-08-30T01:44:02;8.85;;;3.08;;
59310;SDS011;45078;51.654;21.250;2022-08-30T01:46:31;7.97;;;2.95;;
59310;SDS011;45078;51.654;21.250;2022-08-30T01:49:00;7.70;;;2.97;;
59310;SDS011;45078;51.654;21.250;2022-08-30T01:51:29;6.43;;;3.25;;
59310;SDS011;45078;51.654;21.250;2022-08-30T01:53:55;4.82;;;3.15;;
59310;SDS011;45078;51.654;21.250;2022-08-30T01:56:23;6.13;;;3.38;;
59310;SDS011;45078;51.654;21.250;2022-08-30T01:58:50;8.10;;;3.60;;
59310;SDS011;45078;51.654;21.250;2022-08-30T02:01:18;7.15;;;3.40;;
59310;SDS011;45078;51.654;21.250;2022-08-30T02:03:46;12.40;;;3.40;;
59310;SDS011;45078;51.654;21.250;2022-08-30T02:06:13;6.00;;;3.47;;
59310;SDS011;45078;51.654;21.250;2022-08-30T02:08:43;8.30;;;3.67;;
59310;SDS011;45078;51.654;21.250;2022-08-30T02:11:10;11.00;;;4.00;;
59310;SDS011;45078;51.654;21.250;2022-08-30T02:13:37;8.52;;;3.65;;
59310;SDS011;45078;51.654;21.250;2022-08-30T02:16:05;7.25;;;3.40;;
59310;SDS011;45078;51.654;21.250;2022-08-30T02:18:33;10.73;;;3.20;;
59310;SDS011;45078;51.654;21.250;2022-08-30T02:20:59;7.28;;;3.40;;
59310;SDS011;45078;51.654;21.250;2022-08-30T02:23:26;9.35;;;3.97;;
59310;SDS011;45078;51.654;21.250;2022-08-30T02:25:52;6.18;;;3.50;;
59310;SDS011;45078;51.654;21.250;2022-08-30T02:28:18;6.93;;;2.83;;
59310;SDS011;45078;51.654;21.250;2022-08-30T02:30:45;6.95;;;3.28;;
59310;SDS011;45078;51.654;21.250;2022-08-30T02:33:12;6.43;;;3.55;;
59310;SDS011;45078;51.654;21.250;2022-08-30T02:35:38;8.43;;;3.35;;
59310;SDS011;45078;51.654;21.250;2022-08-30T02:38:04;5.38;;;3.28;;
59310;SDS011;45078;51.654;21.250;2022-08-30T02:40:30;9.05;;;3.70;;
59310;SDS011;45078;51.654;21.250;2022-08-30T02:42:57;8.13;;;3.55;;
59310;SDS011;45078;51.654;21.250;2022-08-30T02:45:23;6.47;;;3.50;;
59310;SDS011;45078;51.654;21.250;2022-08-30T02:47:49;7.82;;;3.65;;
59310;SDS011;45078;51.654;21.250;2022-08-30T02:50:15;6.65;;;3.08;;
59310;SDS011;45078;51.654;21.250;2022-08-30T02:52:41;8.35;;;3.67;;
59310;SDS011;45078;51.654;21.250;2022-08-30T02:55:08;7.82;;;3.72;;
59310;SDS011;45078;51.654;21.250;2022-08-30T02:57:34;8.10;;;3.88;;
59310;SDS011;45078;51.654;21.250;2022-08-30T03:00:06;9.18;;;4.68;;
59310;SDS011;45078;51.654;21.250;2022-08-30T03:02:33;6.80;;;3.53;;
59310;SDS011;45078;51.654;21.250;2022-08-30T03:04:59;8.20;;;3.72;;
59310;SDS011;45078;51.654;21.250;2022-08-30T03:07:25;11.13;;;3.40;;
59310;SDS011;45078;51.654;21.250;2022-08-30T03:09:51;6.90;;;3.70;;
59310;SDS011;45078;51.654;21.250;2022-08-30T03:12:17;8.30;;;3.78;;
59310;SDS011;45078;51.654;21.250;2022-08-30T03:14:43;6.47;;;3.63;;
59310;SDS011;45078;51.654;21.250;2022-08-30T03:17:09;7.35;;;4.25;;
59310;SDS011;45078;51.654;21.250;2022-08-30T03:19:35;13.52;;;3.83;;
59310;SDS011;45078;51.654;21.250;2022-08-30T03:22:02;6.05;;;3.40;;
59310;SDS011;45078;51.654;21.250;2022-08-30T03:24:31;8.00;;;3.42;;
59310;SDS011;45078;51.654;21.250;2022-08-30T03:26:57;5.43;;;2.90;;
59310;SDS011;45078;51.654;21.250;2022-08-30T03:29:23;5.53;;;3.08;;
59310;SDS011;45078;51.654;21.250;2022-08-30T03:31:49;8.52;;;3.03;;
59310;SDS011;45078;51.654;21.250;2022-08-30T03:34:16;5.38;;;3.08;;
59310;SDS011;45078;51.654;21.250;2022-08-30T03:36:42;6.32;;;3.03;;
59310;SDS011;45078;51.654;21.250;2022-08-30T03:39:09;7.28;;;3.28;;
59310;SDS011;45078;51.654;21.250;2022-08-30T03:41:35;15.38;;;3.88;;
59310;SDS011;45078;51.654;21.250;2022-08-30T03:44:01;5.10;;;2.95;;
59310;SDS011;45078;51.654;21.250;2022-08-30T03:46:27;5.38;;;3.10;;
59310;SDS011;45078;51.654;21.250;2022-08-30T03:48:53;5.00;;;3.10;;
59310;SDS011;45078;51.654;21.250;2022-08-30T03:51:23;10.25;;;3.20;;
59310;SDS011;45078;51.654;21.250;2022-08-30T03:53:49;5.80;;;3.10;;
59310;SDS011;45078;51.654;21.250;2022-08-30T03:56:15;5.38;;;2.90;;
59310;SDS011;45078;51.654;21.250;2022-08-30T03:58:42;4.78;;;3.08;;
59310;SDS011;45078;51.654;21.250;2022-08-30T04:01:08;6.57;;;3.15;;
59310;SDS011;45078;51.654;21.250;2022-08-30T04:03:34;4.85;;;3.10;;
59310;SDS011;45078;51.654;21.250;2022-08-30T04:06:01;10.25;;;3.13;;
59310;SDS011;45078;51.654;21.250;2022-08-30T04:08:27;6.57;;;3.25;;
59310;SDS011;45078;51.654;21.250;2022-08-30T04:10:53;5.75;;;3.13;;
59310;SDS011;45078;51.654;21.250;2022-08-30T04:13:20;8.13;;;4.05;;
59310;SDS011;45078;51.654;21.250;2022-08-30T04:15:47;5.65;;;2.97;;
59310;SDS011;45078;51.654;21.250;2022-08-30T04:18:13;5.70;;;3.63;;
59310;SDS011;45078;51.654;21.250;2022-08-30T04:20:39;10.23;;;4.10;;
59310;SDS011;45078;51.654;21.250;2022-08-30T04:23:05;9.50;;;3.03;;
59310;SDS011;45078;51.654;21.250;2022-08-30T04:25:32;7.10;;;3.55;;
59310;SDS011;45078;51.654;21.250;2022-08-30T04:27:59;7.25;;;4.03;;
59310;SDS011;45078;51.654;21.250;2022-08-30T04:30:25;9.10;;;4.28;;
59310;SDS011;45078;51.654;21.250;2022-08-30T04:32:51;11.32;;;4.65;;
59310;SDS011;45078;51.654;21.250;2022-08-30T04:35:17;13.38;;;4.53;;
59310;SDS011;45078;51.654;21.250;2022-08-30T04:37:43;13.70;;;6.22;;
59310;SDS011;45078;51.654;21.250;2022-08-30T04:40:09;9.65;;;5.25;;
59310;SDS011;45078;51.654;21.250;2022-08-30T04:42:35;14.10;;;6.40;;
59310;SDS011;45078;51.654;21.250;2022-08-30T04:45:06;11.27;;;5.47;;
59310;SDS011;45078;51.654;21.250;2022-08-30T04:47:34;15.20;;;6.00;;
59310;SDS011;45078;51.654;21.250;2022-08-30T04:50:00;11.70;;;5.22;;
59310;SDS011;45078;51.654;21.250;2022-08-30T04:52:28;13.32;;;6.20;;
59310;SDS011;45078;51.654;21.250;2022-08-30T04:54:54;13.00;;;5.95;;
59310;SDS011;45078;51.654;21.250;2022-08-30T04:57:21;14.85;;;5.95;;
59310;SDS011;45078;51.654;21.250;2022-08-30T04:59:47;14.13;;;5.88;;
59310;SDS011;45078;51.654;21.250;2022-08-30T05:02:13;13.00;;;5.85;;
59310;SDS011;45078;51.654;21.250;2022-08-30T05:04:39;10.48;;;5.65;;
59310;SDS011;45078;51.654;21.250;2022-08-30T05:07:27;13.30;;;6.18;;
59310;SDS011;45078;51.654;21.250;2022-08-30T05:09:54;14.90;;;6.25;;
59310;SDS011;45078;51.654;21.250;2022-08-30T05:12:20;13.55;;;6.15;;
59310;SDS011;45078;51.654;21.250;2022-08-30T05:14:46;16.05;;;5.93;;
59310;SDS011;45078;51.654;21.250;2022-08-30T05:17:12;11.68;;;6.20;;
59310;SDS011;45078;51.654;21.250;2022-08-30T05:19:38;12.55;;;5.82;;
59310;SDS011;45078;51.654;21.250;2022-08-30T05:22:03;12.82;;;5.93;;
59310;SDS011;45078;51.654;21.250;2022-08-30T05:24:29;10.55;;;5.43;;
59310;SDS011;45078;51.654;21.250;2022-08-30T05:26:56;9.30;;;5.35;;
59310;SDS011;45078;51.654;21.250;2022-08-30T05:29:22;11.90;;;5.63;;
59310;SDS011;45078;51.654;21.250;2022-08-30T05:31:48;13.20;;;5.40;;
59310;SDS011;45078;51.654;21.250;2022-08-30T05:34:15;12.45;;;5.57;;
59310;SDS011;45078;51.654;21.250;2022-08-30T05:36:41;13.23;;;5.93;;
59310;SDS011;45078;51.654;21.250;2022-08-30T05:39:07;9.80;;;5.00;;
59310;SDS011;45078;51.654;21.250;2022-08-30T05:41:34;8.90;;;5.43;;
59310;SDS011;45078;51.654;21.250;2022-08-30T05:44:01;9.95;;;5.07;;
59310;SDS011;45078;51.654;21.250;2022-08-30T05:46:28;7.50;;;4.40;;
59310;SDS011;45078;51.654;21.250;2022-08-30T05:48:57;7.75;;;4.20;;
59310;SDS011;45078;51.654;21.250;2022-08-30T05:51:26;7.32;;;4.13;;
59310;SDS011;45078;51.654;21.250;2022-08-30T05:53:53;8.02;;;4.25;;
59310;SDS011;45078;51.654;21.250;2022-08-30T05:56:21;7.07;;;4.22;;
59310;SDS011;45078;51.654;21.250;2022-08-30T05:58:49;7.60;;;3.92;;
59310;SDS011;45078;51.654;21.250;2022-08-30T06:01:34;5.72;;;3.35;;
59310;SDS011;45078;51.654;21.250;2022-08-30T06:04:04;8.02;;;4.20;;
59310;SDS011;45078;51.654;21.250;2022-08-30T06:06:32;7.50;;;3.88;;
59310;SDS011;45078;51.654;21.250;2022-08-30T06:08:59;5.88;;;3.67;;
59310;SDS011;45078;51.654;21.250;2022-08-30T06:11:26;6.82;;;3.58;;
59310;SDS011;45078;51.654;21.250;2022-08-30T06:13:52;6.93;;;3.70;;
59310;SDS011;45078;51.654;21.250;2022-08-30T06:16:19;7.60;;;3.80;;
59310;SDS011;45078;51.654;21.250;2022-08-30T06:18:47;7.13;;;4.25;;
59310;SDS011;45078;51.654;21.250;2022-08-30T06:21:36;12.90;;;4.20;;
59310;SDS011;45078;51.654;21.250;2022-08-30T06:24:02;10.43;;;4.25;;
59310;SDS011;45078;51.654;21.250;2022-08-30T06:26:29;8.93;;;4.75;;
59310;SDS011;45078;51.654;21.250;2022-08-30T06:28:56;7.05;;;3.83;;
59310;SDS011;45078;51.654;21.250;2022-08-30T06:31:23;10.60;;;4.20;;
59310;SDS011;45078;51.654;21.250;2022-08-30T06:33:50;6.72;;;4.38;;
59310;SDS011;45078;51.654;21.250;2022-08-30T06:36:17;10.38;;;5.10;;
59310;SDS011;45078;51.654;21.250;2022-08-30T06:38:48;8.50;;;5.13;;
59310;SDS011;45078;51.654;21.250;2022-08-30T06:41:15;11.20;;;5.47;;
59310;SDS011;45078;51.654;21.250;2022-08-30T06:43:43;8.63;;;5.03;;
59310;SDS011;45078;51.654;21.250;2022-08-30T06:46:10;10.57;;;5.65;;
59310;SDS011;45078;51.654;21.250;2022-08-30T06:48:38;11.02;;;4.93;;
59310;SDS011;45078;51.654;21.250;2022-08-30T06:51:04;9.85;;;5.45;;
59310;SDS011;45078;51.654;21.250;2022-08-30T06:53:31;6.25;;;3.95;;
59310;SDS011;45078;51.654;21.250;2022-08-30T06:55:58;14.50;;;5.70;;
59310;SDS011;45078;51.654;21.250;2022-08-30T06:58:30;6.88;;;3.97;;
59310;SDS011;45078;51.654;21.250;2022-08-30T07:00:56;11.30;;;5.82;;
59310;SDS011;45078;51.654;21.250;2022-08-30T07:03:22;11.02;;;5.20;;
59310;SDS011;45078;51.654;21.250;2022-08-30T07:05:51;8.40;;;5.57;;
59310;SDS011;45078;51.654;21.250;2022-08-30T07:08:17;10.25;;;5.28;;
59310;SDS011;45078;51.654;21.250;2022-08-30T07:10:43;11.50;;;6.18;;
59310;SDS011;45078;51.654;21.250;2022-08-30T07:13:09;12.48;;;6.32;;
59310;SDS011;45078;51.654;21.250;2022-08-30T07:15:38;11.30;;;6.07;;
59310;SDS011;45078;51.654;21.250;2022-08-30T07:18:05;9.98;;;6.22;;
59310;SDS011;45078;51.654;21.250;2022-08-30T07:20:49;8.88;;;5.88;;
59310;SDS011;45078;51.654;21.250;2022-08-30T07:23:15;9.43;;;5.70;;
59310;SDS011;45078;51.654;21.250;2022-08-30T07:25:41;8.05;;;5.20;;
59310;SDS011;45078;51.654;21.250;2022-08-30T07:28:07;8.00;;;5.40;;
59310;SDS011;45078;51.654;21.250;2022-08-30T07:30:34;9.88;;;5.72;;
59310;SDS011;45078;51.654;21.250;2022-08-30T07:33:00;7.53;;;4.90;;
59310;SDS011;45078;51.654;21.250;2022-08-30T07:35:26;10.13;;;5.88;;
59310;SDS011;45078;51.654;21.250;2022-08-30T07:37:52;9.35;;;5.60;;
59310;SDS011;45078;51.654;21.250;2022-08-30T07:40:18;10.23;;;5.50;;
59310;SDS011;45078;51.654;21.250;2022-08-30T07:42:44;9.13;;;4.93;;
59310;SDS011;45078;51.654;21.250;2022-08-30T07:45:10;9.13;;;5.40;;
59310;SDS011;45078;51.654;21.250;2022-08-30T07:47:36;8.15;;;4.95;;
59310;SDS011;45078;51.654;21.250;2022-08-30T07:50:03;6.95;;;4.63;;
59310;SDS011;45078;51.654;21.250;2022-08-30T07:52:30;8.82;;;5.18;;
59310;SDS011;45078;51.654;21.250;2022-08-30T07:54:57;8.90;;;5.68;;
59310;SDS011;45078;51.654;21.250;2022-08-30T07:57:23;9.35;;;5.20;;
59310;SDS011;45078;51.654;21.250;2022-08-30T07:59:50;8.63;;;5.22;;
59310;SDS011;45078;51.654;21.250;2022-08-30T08:02:16;6.65;;;4.65;;
59310;SDS011;45078;51.654;21.250;2022-08-30T08:04:43;8.05;;;4.55;;
59310;SDS011;45078;51.654;21.250;2022-08-30T08:07:09;8.00;;;4.20;;
59310;SDS011;45078;51.654;21.250;2022-08-30T08:09:36;7.30;;;4.53;;
59310;SDS011;45078;51.654;21.250;2022-08-30T08:12:03;7.47;;;4.90;;
59310;SDS011;45078;51.654;21.250;2022-08-30T08:14:30;6.07;;;4.20;;
59310;SDS011;45078;51.654;21.250;2022-08-30T08:16:57;5.50;;;3.50;;
59310;SDS011;45078;51.654;21.250;2022-08-30T08:19:23;5.50;;;3.55;;
59310;SDS011;45078;51.654;21.250;2022-08-30T08:21:49;6.10;;;3.58;;
59310;SDS011;45078;51.654;21.250;2022-08-30T08:24:18;6.97;;;3.17;;
59310;SDS011;45078;51.654;21.250;2022-08-30T08:26:44;6.30;;;3.85;;
59310;SDS011;45078;51.654;21.250;2022-08-30T08:29:10;5.82;;;4.10;;
59310;SDS011;45078;51.654;21.250;2022-08-30T08:31:36;5.45;;;3.65;;
59310;SDS011;45078;51.654;21.250;2022-08-30T08:34:03;5.65;;;3.85;;
59310;SDS011;45078;51.654;21.250;2022-08-30T08:36:30;6.22;;;2.83;;
59310;SDS011;45078;51.654;21.250;2022-08-30T08:38:57;5.63;;;3.53;;
59310;SDS011;45078;51.654;21.250;2022-08-30T08:44:54;5.22;;;3.33;;
59310;SDS011;45078;51.654;21.250;2022-08-30T08:49:49;5.65;;;3.67;;
59310;SDS011;45078;51.654;21.250;2022-08-30T08:52:23;5.25;;;3.25;;
59310;SDS011;45078;51.654;21.250;2022-08-30T08:55:14;5.90;;;3.20;;
59310;SDS011;45078;51.654;21.250;2022-08-30T08:57:43;4.97;;;3.20;;
59310;SDS011;45078;51.654;21.250;2022-08-30T09:00:10;5.07;;;2.65;;
59310;SDS011;45078;51.654;21.250;2022-08-30T09:02:39;4.53;;;2.92;;
59310;SDS011;45078;51.654;21.250;2022-08-30T09:05:17;7.15;;;2.20;;
59310;SDS011;45078;51.654;21.250;2022-08-30T09:07:49;3.72;;;2.47;;
59310;SDS011;45078;51.654;21.250;2022-08-30T09:10:19;4.70;;;2.20;;
59310;SDS011;45078;51.654;21.250;2022-08-30T09:12:45;3.90;;;2.08;;
59310;SDS011;45078;51.654;21.250;2022-08-30T09:15:16;4.25;;;1.98;;
59310;SDS011;45078;51.654;21.250;2022-08-30T09:20:29;4.45;;;2.00;;
59310;SDS011;45078;51.654;21.250;2022-08-30T09:25:52;3.22;;;1.52;;
59310;SDS011;45078;51.654;21.250;2022-08-30T09:28:30;1.90;;;1.27;;
59310;SDS011;45078;51.654;21.250;2022-08-30T09:31:18;2.05;;;1.50;;
59310;SDS011;45078;51.654;21.250;2022-08-30T09:33:53;2.42;;;1.25;;
59310;SDS011;45078;51.654;21.250;2022-08-30T09:36:34;3.63;;;1.60;;
59310;SDS011;45078;51.654;21.250;2022-08-30T09:39:16;2.72;;;1.17;;
59310;SDS011;45078;51.654;21.250;2022-08-30T09:42:13;3.15;;;1.30;;
59310;SDS011;45078;51.654;21.250;2022-08-30T09:44:45;3.08;;;1.27;;
59310;SDS011;45078;51.654;21.250;2022-08-30T09:50:03;2.03;;;1.42;;
59310;SDS011;45078;51.654;21.250;2022-08-30T09:52:36;2.25;;;1.40;;
59310;SDS011;45078;51.654;21.250;2022-08-30T10:09:21;2.45;;;1.38;;
59310;SDS011;45078;51.654;21.250;2022-08-30T10:11:55;2.67;;;1.15;;
59310;SDS011;45078;51.654;21.250;2022-08-30T10:23:25;1.88;;;1.20;;
59310;SDS011;45078;51.654;21.250;2022-08-30T10:25:56;2.47;;;1.33;;
59310;SDS011;45078;51.654;21.250;2022-08-30T10:31:25;2.83;;;1.40;;
59310;SDS011;45078;51.654;21.250;2022-08-30T10:33:56;4.40;;;1.40;;
59310;SDS011;45078;51.654;21.250;2022-08-30T10:36:30;2.13;;;1.20;;
59310;SDS011;45078;51.654;21.250;2022-08-30T10:39:04;1.75;;;1.05;;
59310;SDS011;45078;51.654;21.250;2022-08-30T10:41:35;2.20;;;1.20;;
59310;SDS011;45078;51.654;21.250;2022-08-30T10:49:13;1.98;;;1.00;;
59310;SDS011;45078;51.654;21.250;2022-08-30T10:52:07;2.08;;;1.08;;
59310;SDS011;45078;51.654;21.250;2022-08-30T10:55:05;1.73;;;1.00;;
59310;SDS011;45078;51.654;21.250;2022-08-30T10:57:34;2.05;;;0.90;;
59310;SDS011;45078;51.654;21.250;2022-08-30T11:00:03;1.73;;;0.90;;
59310;SDS011;45078;51.654;21.250;2022-08-30T11:10:45;2.17;;;1.05;;
59310;SDS011;45078;51.654;21.250;2022-08-30T11:13:20;1.48;;;0.95;;
59310;SDS011;45078;51.654;21.250;2022-08-30T11:19:14;1.63;;;1.13;;
59310;SDS011;45078;51.654;21.250;2022-08-30T11:21:31;1.83;;;1.10;;
59310;SDS011;45078;51.654;21.250;2022-08-30T11:24:04;2.38;;;1.10;;
59310;SDS011;45078;51.654;21.250;2022-08-30T11:26:50;2.38;;;1.00;;
59310;SDS011;45078;51.654;21.250;2022-08-30T11:42:47;1.27;;;0.90;;
59310;SDS011;45078;51.654;21.250;2022-08-30T11:50:18;2.53;;;1.00;;
59310;SDS011;45078;51.654;21.250;2022-08-30T11:55:55;1.48;;;0.82;;
59310;SDS011;45078;51.654;21.250;2022-08-30T12:04:06;2.10;;;1.00;;
59310;SDS011;45078;51.654;21.250;2022-08-30T12:12:00;1.30;;;0.80;;
59310;SDS011;45078;51.654;21.250;2022-08-30T12:22:46;1.58;;;0.90;;
59310;SDS011;45078;51.654;21.250;2022-08-30T12:28:15;1.70;;;1.00;;
59310;SDS011;45078;51.654;21.250;2022-08-30T12:30:47;2.05;;;1.02;;
59310;SDS011;45078;51.654;21.250;2022-08-30T12:33:22;3.58;;;1.00;;
59310;SDS011;45078;51.654;21.250;2022-08-30T12:35:56;1.88;;;0.90;;
59310;SDS011;45078;51.654;21.250;2022-08-30T12:38:23;1.25;;;0.77;;
59310;SDS011;45078;51.654;21.250;2022-08-30T12:40:53;3.00;;;0.90;;
59310;SDS011;45078;51.654;21.250;2022-08-30T12:45:57;2.10;;;0.90;;
59310;SDS011;45078;51.654;21.250;2022-08-30T12:48:26;1.27;;;0.80;;
59310;SDS011;45078;51.654;21.250;2022-08-30T12:50:56;1.35;;;0.70;;
59310;SDS011;45078;51.654;21.250;2022-08-30T12:56:06;0.93;;;0.60;;
59310;SDS011;45078;51.654;21.250;2022-08-30T13:06:56;2.97;;;1.20;;
59310;SDS011;45078;51.654;21.250;2022-08-30T13:11:55;1.77;;;1.08;;
59310;SDS011;45078;51.654;21.250;2022-08-30T13:14:39;2.08;;;1.02;;
59310;SDS011;45078;51.654;21.250;2022-08-30T13:22:30;0.90;;;0.75;;
59310;SDS011;45078;51.654;21.250;2022-08-30T13:24:59;1.90;;;1.10;;
59310;SDS011;45078;51.654;21.250;2022-08-30T13:27:25;1.63;;;1.05;;
59310;SDS011;45078;51.654;21.250;2022-08-30T13:29:53;2.17;;;0.95;;
59310;SDS011;45078;51.654;21.250;2022-08-30T13:32:19;0.95;;;0.70;;
59310;SDS011;45078;51.654;21.250;2022-08-30T13:34:46;4.60;;;1.13;;
59310;SDS011;45078;51.654;21.250;2022-08-30T13:37:17;2.35;;;0.70;;
59310;SDS011;45078;51.654;21.250;2022-08-30T13:39:47;0.95;;;0.70;;
59310;SDS011;45078;51.654;21.250;2022-08-30T13:42:13;2.65;;;0.60;;
59310;SDS011;45078;51.654;21.250;2022-08-30T13:44:39;2.78;;;0.80;;
59310;SDS011;45078;51.654;21.250;2022-08-30T13:47:05;1.13;;;0.70;;
59310;SDS011;45078;51.654;21.250;2022-08-30T13:49:32;0.98;;;0.80;;
59310;SDS011;45078;51.654;21.250;2022-08-30T13:52:00;1.80;;;0.80;;
59310;SDS011;45078;51.654;21.250;2022-08-30T13:54:27;1.05;;;0.70;;
59310;SDS011;45078;51.654;21.250;2022-08-30T13:56:53;1.70;;;0.80;;
59310;SDS011;45078;51.654;21.250;2022-08-30T13:59:20;1.08;;;0.77;;
59310;SDS011;45078;51.654;21.250;2022-08-30T14:01:46;0.82;;;0.68;;
59310;SDS011;45078;51.654;21.250;2022-08-30T14:04:13;1.73;;;0.70;;
59310;SDS011;45078;51.654;21.250;2022-08-30T14:06:39;1.10;;;0.80;;
59310;SDS011;45078;51.654;21.250;2022-08-30T14:09:07;1.20;;;0.80;;
59310;SDS011;45078;51.654;21.250;2022-08-30T14:11:34;2.53;;;1.40;;
59310;SDS011;45078;51.654;21.250;2022-08-30T14:14:00;2.15;;;1.30;;
59310;SDS011;45078;51.654;21.250;2022-08-30T14:16:27;2.25;;;1.15;;
59310;SDS011;45078;51.654;21.250;2022-08-30T14:18:53;1.50;;;0.90;;
59310;SDS011;45078;51.654;21.250;2022-08-30T14:21:19;1.30;;;1.10;;
59310;SDS011;45078;51.654;21.250;2022-08-30T14:23:45;2.00;;;1.10;;
59310;SDS011;45078;51.654;21.250;2022-08-30T14:26:19;1.40;;;1.08;;
59310;SDS011;45078;51.654;21.250;2022-08-30T14:28:48;4.05;;;1.20;;
59310;SDS011;45078;51.654;21.250;2022-08-30T14:31:14;2.58;;;1.10;;
59310;SDS011;45078;51.654;21.250;2022-08-30T14:33:40;2.60;;;1.10;;
59310;SDS011;45078;51.654;21.250;2022-08-30T14:36:07;1.58;;;1.05;;
59310;SDS011;45078;51.654;21.250;2022-08-30T14:38:33;1.05;;;0.73;;
59310;SDS011;45078;51.654;21.250;2022-08-30T14:41:02;1.98;;;0.80;;
59310;SDS011;45078;51.654;21.250;2022-08-30T14:43:29;5.82;;;1.55;;
59310;SDS011;45078;51.654;21.250;2022-08-30T14:45:58;1.98;;;0.90;;
59310;SDS011;45078;51.654;21.250;2022-08-30T14:48:25;1.10;;;0.90;;
59310;SDS011;45078;51.654;21.250;2022-08-30T14:50:50;1.48;;;0.80;;
59310;SDS011;45078;51.654;21.250;2022-08-30T14:53:16;0.93;;;0.80;;
59310;SDS011;45078;51.654;21.250;2022-08-30T14:55:42;1.70;;;0.98;;
59310;SDS011;45078;51.654;21.250;2022-08-30T14:58:08;1.10;;;0.80;;
59310;SDS011;45078;51.654;21.250;2022-08-30T15:00:35;2.03;;;0.80;;
59310;SDS011;45078;51.654;21.250;2022-08-30T15:03:02;1.75;;;0.70;;
59310;SDS011;45078;51.654;21.250;2022-08-30T15:05:28;1.33;;;0.70;;
59310;SDS011;45078;51.654;21.250;2022-08-30T15:07:55;1.27;;;0.95;;
59310;SDS011;45078;51.654;21.250;2022-08-30T15:10:22;1.83;;;1.08;;
59310;SDS011;45078;51.654;21.250;2022-08-30T15:12:48;0.82;;;0.70;;
59310;SDS011;45078;51.654;21.250;2022-08-30T15:15:16;1.88;;;0.93;;
59310;SDS011;45078;51.654;21.250;2022-08-30T15:17:44;1.00;;;0.80;;
59310;SDS011;45078;51.654;21.250;2022-08-30T15:20:11;1.35;;;0.88;;
59310;SDS011;45078;51.654;21.250;2022-08-30T15:22:37;1.45;;;0.90;;
59310;SDS011;45078;51.654;21.250;2022-08-30T15:25:04;2.17;;;0.80;;
59310;SDS011;45078;51.654;21.250;2022-08-30T15:27:30;1.35;;;0.90;;
59310;SDS011;45078;51.654;21.250;2022-08-30T15:29:56;1.30;;;0.88;;
59310;SDS011;45078;51.654;21.250;2022-08-30T15:32:22;1.60;;;1.10;;
59310;SDS011;45078;51.654;21.250;2022-08-30T15:34:48;1.35;;;0.98;;
59310;SDS011;45078;51.654;21.250;2022-08-30T15:37:14;3.35;;;0.85;;
59310;SDS011;45078;51.654;21.250;2022-08-30T15:39:49;2.45;;;1.10;;
59310;SDS011;45078;51.654;21.250;2022-08-30T15:42:15;1.15;;;0.90;;
59310;SDS011;45078;51.654;21.250;2022-08-30T15:44:44;1.40;;;0.90;;
59310;SDS011;45078;51.654;21.250;2022-08-30T15:47:10;1.23;;;0.80;;
59310;SDS011;45078;51.654;21.250;2022-08-30T15:49:36;1.10;;;0.80;;
59310;SDS011;45078;51.654;21.250;2022-08-30T15:52:03;1.30;;;0.90;;
59310;SDS011;45078;51.654;21.250;2022-08-30T15:54:29;1.33;;;0.88;;
59310;SDS011;45078;51.654;21.250;2022-08-30T15:56:55;1.17;;;0.80;;
59310;SDS011;45078;51.654;21.250;2022-08-30T15:59:25;0.88;;;0.63;;
59310;SDS011;45078;51.654;21.250;2022-08-30T16:01:51;2.60;;;0.75;;
59310;SDS011;45078;51.654;21.250;2022-08-30T16:04:17;2.53;;;0.80;;
59310;SDS011;45078;51.654;21.250;2022-08-30T16:06:43;1.90;;;0.90;;
59310;SDS011;45078;51.654;21.250;2022-08-30T16:09:10;1.67;;;0.88;;
59310;SDS011;45078;51.654;21.250;2022-08-30T16:11:36;2.15;;;1.05;;
59310;SDS011;45078;51.654;21.250;2022-08-30T16:14:02;1.17;;;0.82;;
59310;SDS011;45078;51.654;21.250;2022-08-30T16:16:29;1.20;;;0.82;;
59310;SDS011;45078;51.654;21.250;2022-08-30T16:18:55;1.70;;;1.00;;
59310;SDS011;45078;51.654;21.250;2022-08-30T16:21:22;4.32;;;0.93;;
59310;SDS011;45078;51.654;21.250;2022-08-30T16:23:51;1.25;;;0.90;;
59310;SDS011;45078;51.654;21.250;2022-08-30T16:26:19;1.30;;;0.90;;
59310;SDS011;45078;51.654;21.250;2022-08-30T16:28:46;1.58;;;0.90;;
59310;SDS011;45078;51.654;21.250;2022-08-30T16:31:13;1.30;;;0.85;;
59310;SDS011;45078;51.654;21.250;2022-08-30T16:33:40;2.38;;;1.00;;
59310;SDS011;45078;51.654;21.250;2022-08-30T16:36:06;1.98;;;0.90;;
59310;SDS011;45078;51.654;21.250;2022-08-30T16:38:34;1.70;;;1.10;;
59310;SDS011;45078;51.654;21.250;2022-08-30T16:41:04;1.90;;;0.90;;